Time;durP1;ratioP1;P1;durP2;ratioP2;P2;SDS_P1;SDS_P2;PMS_P1;PMS_P2;Temp;Humidity;BMP_temperature;BMP_pressure;BME280_temperature;BME280_humidity;BME280_pressure;Samples;Min_cycle;Max_cycle;Signal;HPM_P1;HPM_P2
2021/04/25 00:00:21;;;;;;;2.88;1.75;;;;;;;3.74;70.74;98893.03;4952292;28;20039;-63
2021/04/25 00:02:48;;;;;;;2.42;1.65;;;;;;;3.70;70.64;98899.19;4952570;28;20043;-64
2021/04/25 00:05:16;;;;;;;2.95;1.65;;;;;;;3.66;69.75;98898.34;4952406;28;20042;-64
2021/04/25 00:07:45;;;;;;;2.83;1.85;;;;;;;3.71;70.23;98906.16;4968022;28;20054;-64
2021/04/25 00:10:12;;;;;;;2.10;1.60;;;;;;;3.59;69.79;98885.28;4970204;28;20053;-63
2021/04/25 00:12:43;;;;;;;3.22;1.83;;;;;;;3.53;69.86;98896.66;4968522;28;20046;-64
2021/04/25 00:15:24;;;;;;;3.25;1.73;;;;;;;3.57;69.70;98890.50;4966606;28;20454;-64
2021/04/25 00:17:50;;;;;;;5.38;1.75;;;;;;;3.44;69.41;98901.13;4969963;28;20206;-64
2021/04/25 00:20:17;;;;;;;2.20;1.60;;;;;;;3.24;69.43;98861.91;4952017;28;20046;-67
2021/04/25 00:22:44;;;;;;;3.50;1.67;;;;;;;3.35;68.82;98891.53;4967258;28;20434;-63
2021/04/25 00:25:12;;;;;;;5.28;1.42;;;;;;;3.36;68.73;98885.41;4952200;28;20275;-64
2021/04/25 00:27:38;;;;;;;3.42;1.75;;;;;;;3.39;69.08;98885.41;4969490;28;20486;-64
2021/04/25 00:30:07;;;;;;;2.22;1.42;;;;;;;3.29;69.05;98882.84;4982252;28;20067;-64
2021/04/25 00:32:33;;;;;;;1.92;1.52;;;;;;;3.30;68.73;98882.84;4952206;28;20047;-64
2021/04/25 00:34:59;;;;;;;1.98;1.27;;;;;;;3.18;69.20;98863.69;4936255;28;20049;-63
2021/04/25 00:37:25;;;;;;;3.78;1.58;;;;;;;3.22;69.51;98889.88;4968819;28;20514;-68
2021/04/25 00:39:59;;;;;;;2.50;1.23;;;;;;;3.09;69.08;98864.59;4969367;28;20043;-63
2021/04/25 00:42:25;;;;;;;3.40;1.27;;;;;;;2.98;69.38;98848.09;4968596;28;20050;-66
2021/04/25 00:45:01;;;;;;;2.50;1.23;;;;;;;3.19;68.99;98889.00;4965854;28;20126;-65
2021/04/25 00:47:27;;;;;;;2.60;1.30;;;;;;;3.20;69.54;98882.88;4983876;28;20051;-64
2021/04/25 00:49:53;;;;;;;5.20;1.75;;;;;;;3.03;70.47;98859.41;4969226;28;20049;-63
2021/04/25 00:52:20;;;;;;;2.10;1.60;;;;;;;3.21;70.35;98880.25;4952069;28;20046;-64
2021/04/25 00:54:46;;;;;;;2.60;1.38;;;;;;;2.83;70.66;98823.72;4934093;28;20047;-63
2021/04/25 00:57:15;;;;;;;4.28;1.60;;;;;;;3.11;70.66;98880.31;4967578;28;20058;-63
2021/04/25 00:59:42;;;;;;;2.10;1.23;;;;;;;2.99;71.10;98870.78;4968964;28;20119;-64
2021/04/25 01:02:08;;;;;;;2.92;1.58;;;;;;;2.96;70.83;98880.38;4933654;28;20085;-65
2021/04/25 01:04:34;;;;;;;2.03;1.17;;;;;;;2.73;70.80;98858.69;4967775;28;20078;-62
2021/04/25 01:07:01;;;;;;;1.58;1.10;;;;;;;2.75;70.94;98849.94;4935553;28;20544;-64
2021/04/25 01:09:31;;;;;;;3.00;1.55;;;;;;;2.91;70.80;98869.94;4967198;28;20054;-67
2021/04/25 01:11:58;;;;;;;2.72;1.33;;;;;;;2.83;71.05;98871.72;4967106;28;20417;-64
2021/04/25 01:14:24;;;;;;;3.20;1.40;;;;;;;2.89;70.90;98865.59;4967551;28;20510;-64
2021/04/25 01:16:50;;;;;;;2.20;1.48;;;;;;;2.73;71.74;98853.44;4967424;28;20039;-64
2021/04/25 01:19:16;;;;;;;1.67;1.30;;;;;;;2.77;71.59;98865.66;4966862;28;20133;-64
2021/04/25 01:21:42;;;;;;;2.45;1.30;;;;;;;2.69;72.13;98860.41;4983798;28;20042;-64
2021/04/25 01:24:09;;;;;;;2.20;1.40;;;;;;;2.74;71.06;98855.19;4967669;28;20073;-64
2021/04/25 01:26:35;;;;;;;3.40;1.13;;;;;;;2.76;71.89;98875.22;4968057;28;20039;-68
2021/04/25 01:29:01;;;;;;;2.17;1.35;;;;;;;2.67;72.18;98861.31;4966011;28;20156;-63
2021/04/25 01:31:27;;;;;;;1.40;1.20;;;;;;;2.70;72.26;98862.19;4964304;28;20046;-64
2021/04/25 01:33:53;;;;;;;1.75;1.33;;;;;;;2.63;72.41;98846.50;4965960;28;20042;-62
2021/04/25 01:36:19;;;;;;;2.42;1.35;;;;;;;2.77;72.67;98870.88;4946734;28;20410;-66
2021/04/25 01:38:47;;;;;;;2.65;1.45;;;;;;;2.70;72.29;98866.53;4948378;28;20125;-65
2021/04/25 01:41:13;;;;;;;2.40;1.38;;;;;;;2.71;72.07;98866.53;4954496;28;20055;-66
2021/04/25 01:43:39;;;;;;;3.15;1.40;;;;;;;2.53;72.37;98855.25;4939567;28;20046;-68
2021/04/25 01:46:05;;;;;;;1.48;1.25;;;;;;;2.63;72.87;98880.50;4965884;28;20046;-63
2021/04/25 01:48:31;;;;;;;2.80;2.10;;;;;;;2.56;72.93;98863.06;4967141;28;20441;-66
2021/04/25 01:50:57;;;;;;;1.17;1.02;;;;;;;2.50;72.49;98868.34;4965384;28;20510;-66
2021/04/25 01:53:23;;;;;;;2.22;1.50;;;;;;;2.55;72.92;98869.19;4965079;28;20112;-68
2021/04/25 01:55:49;;;;;;;2.13;1.20;;;;;;;2.48;74.12;98870.97;4952803;28;20100;-65
2021/04/25 01:58:23;;;;;;;1.77;1.25;;;;;;;2.43;73.21;98872.72;4970464;28;20164;-65
2021/04/25 02:00:49;;;;;;;1.60;1.08;;;;;;;2.47;72.86;98863.13;4984406;28;20039;-68
2021/04/25 02:03:15;;;;;;;2.92;1.60;;;;;;;2.39;73.54;98864.88;4969952;28;20066;-64
2021/04/25 02:05:42;;;;;;;2.60;1.30;;;;;;;2.44;73.34;98865.72;4985330;28;20065;-63
2021/04/25 02:08:10;;;;;;;2.67;1.20;;;;;;;2.35;73.69;98866.63;4953086;28;20043;-63
2021/04/25 02:10:37;;;;;;;2.30;1.50;;;;;;;2.34;73.79;98872.72;4968366;28;20061;-62
2021/04/25 02:13:04;;;;;;;1.65;1.10;;;;;;;2.39;73.71;98878.84;4953133;28;20051;-65
2021/04/25 02:15:30;;;;;;;2.78;1.60;;;;;;;2.30;73.93;98862.28;4952994;28;20046;-64
2021/04/25 02:17:56;;;;;;;2.20;1.60;;;;;;;2.35;73.73;98877.09;4951792;28;20122;-68
2021/04/25 02:20:23;;;;;;;2.50;1.38;;;;;;;2.26;73.60;98848.34;4984528;28;20039;-65
2021/04/25 02:22:51;;;;;;;1.63;1.25;;;;;;;2.38;73.66;98874.44;4969796;28;20050;-66
2021/04/25 02:25:18;;;;;;;2.60;1.58;;;;;;;2.46;73.19;98872.69;4967711;28;20074;-63
2021/04/25 02:27:45;;;;;;;3.15;1.48;;;;;;;2.39;73.68;98871.00;4966079;28;20481;-65
2021/04/25 02:30:17;;;;;;;2.75;1.63;;;;;;;2.31;73.79;98861.41;4951518;28;20501;-66
2021/04/25 02:32:43;;;;;;;2.42;1.60;;;;;;;2.28;73.80;98849.22;4967053;28;20049;-64
2021/04/25 02:35:11;;;;;;;3.13;1.30;;;;;;;2.37;74.12;98867.50;4965188;28;20046;-64
2021/04/25 02:37:38;;;;;;;2.97;1.50;;;;;;;2.35;74.39;98873.59;4966386;28;20050;-66
2021/04/25 02:40:06;;;;;;;3.72;1.30;;;;;;;2.15;74.22;98846.63;4982629;28;20598;-66
2021/04/25 02:42:32;;;;;;;2.58;1.70;;;;;;;2.44;73.93;98871.84;4966728;28;20189;-66
2021/04/25 02:44:58;;;;;;;2.33;1.60;;;;;;;2.43;74.02;98877.06;4966108;28;20089;-66
2021/04/25 02:47:24;;;;;;;3.15;1.70;;;;;;;2.43;74.15;98869.22;4967650;28;20122;-63
2021/04/25 02:49:50;;;;;;;1.70;1.23;;;;;;;2.30;74.19;98855.28;4966416;28;20569;-66
2021/04/25 02:52:16;;;;;;;2.45;1.27;;;;;;;2.49;74.00;98875.31;4967918;28;20039;-64
2021/04/25 02:54:42;;;;;;;1.63;1.15;;;;;;;2.41;74.24;98855.28;4968162;28;20380;-64
2021/04/25 02:57:08;;;;;;;2.75;1.58;;;;;;;2.44;74.01;98866.59;4952081;28;20049;-64
2021/04/25 02:59:34;;;;;;;1.75;1.17;;;;;;;2.54;74.51;98873.53;4984404;28;20035;-64
2021/04/25 03:01:59;;;;;;;1.38;1.20;;;;;;;2.58;74.38;98884.88;4950402;28;20053;-64
2021/04/25 03:04:25;;;;;;;3.00;1.58;;;;;;;2.55;73.89;98888.38;4934611;28;20477;-65
2021/04/25 03:06:51;;;;;;;2.05;1.58;;;;;;;2.50;74.41;98878.81;4951483;28;20085;-66
2021/04/25 03:09:17;;;;;;;2.20;1.33;;;;;;;2.39;73.78;98868.38;4966926;28;20050;-65
2021/04/25 03:11:43;;;;;;;3.45;1.48;;;;;;;2.59;73.95;98894.47;4952156;28;20039;-64
2021/04/25 03:14:10;;;;;;;1.90;1.05;;;;;;;2.53;74.38;98887.50;4952032;28;20045;-64
2021/04/25 03:16:35;;;;;;;1.70;1.13;;;;;;;2.43;74.72;98885.81;4967798;28;20137;-65
2021/04/25 03:19:01;;;;;;;3.38;1.58;;;;;;;2.56;74.41;98895.34;4964765;28;20143;-64
2021/04/25 03:21:27;;;;;;;1.92;1.10;;;;;;;2.51;74.46;98897.13;4967355;28;20475;-66
2021/04/25 03:23:53;;;;;;;1.88;1.10;;;;;;;2.50;74.42;98887.50;4951554;28;20157;-67
2021/04/25 03:26:19;;;;;;;4.50;1.17;;;;;;;2.65;74.29;98897.94;4941919;29;20050;-67
2021/04/25 03:28:45;;;;;;;1.45;1.00;;;;;;;2.68;74.09;98892.72;4946622;29;20055;-65
2021/04/25 03:31:11;;;;;;;1.98;1.38;;;;;;;2.80;73.84;98903.13;4948712;29;20035;-65
2021/04/25 03:33:36;;;;;;;2.67;1.40;;;;;;;2.74;73.51;98891.81;4949708;29;20039;-65
2021/04/25 03:36:03;;;;;;;1.98;1.35;;;;;;;2.74;73.02;98900.56;4946733;29;20061;-65
2021/04/25 03:38:28;;;;;;;2.00;1.38;;;;;;;2.80;73.12;98905.75;4931667;29;20051;-63
2021/04/25 03:40:56;;;;;;;1.85;1.33;;;;;;;2.84;72.86;98910.09;4948301;29;20051;-65
2021/04/25 03:43:23;;;;;;;5.13;1.77;;;;;;;2.92;72.81;98904.81;4916589;29;20053;-65
2021/04/25 03:45:49;;;;;;;2.53;1.23;;;;;;;2.94;72.80;98913.56;4948247;28;20047;-64
2021/04/25 03:48:15;;;;;;;1.52;1.23;;;;;;;2.88;72.09;98897.88;4963563;28;20043;-66
2021/04/25 03:50:41;;;;;;;2.33;1.27;;;;;;;2.93;71.75;98914.44;4915665;29;20057;-64
2021/04/25 03:53:07;;;;;;;1.65;1.15;;;;;;;2.85;72.80;98901.38;4946354;29;20046;-67
2021/04/25 03:55:32;;;;;;;8.43;1.55;;;;;;;2.88;72.60;98906.59;4947469;29;20107;-64
2021/04/25 03:57:58;;;;;;;2.55;1.70;;;;;;;2.99;72.16;98927.50;4947955;29;20051;-65
2021/04/25 04:00:24;;;;;;;1.90;1.35;;;;;;;3.06;72.66;98931.84;4949051;28;20141;-63
2021/04/25 04:02:50;;;;;;;1.98;1.20;;;;;;;3.23;72.37;98924.78;4947977;29;20075;-65
2021/04/25 04:05:17;;;;;;;2.83;1.23;;;;;;;3.11;71.97;98916.97;4962862;28;20043;-65
2021/04/25 04:07:42;;;;;;;1.77;1.20;;;;;;;3.13;71.78;98920.47;4934929;28;20108;-65
2021/04/25 04:10:09;;;;;;;1.08;0.85;;;;;;;3.18;72.01;98893.38;4966980;28;20538;-71
2021/04/25 04:12:35;;;;;;;2.00;1.02;;;;;;;3.20;71.51;98916.94;4981975;28;20097;-64
2021/04/25 04:15:02;;;;;;;1.88;0.93;;;;;;;3.36;71.43;98926.47;4968208;28;20442;-65
2021/04/25 04:17:28;;;;;;;1.17;0.90;;;;;;;3.40;70.78;98929.06;4966662;28;20078;-65
2021/04/25 04:19:54;;;;;;;3.65;1.00;;;;;;;3.48;70.27;98936.91;4963191;28;20881;-65
2021/04/25 04:22:20;;;;;;;1.60;0.90;;;;;;;3.47;70.61;98917.69;4967298;28;20039;-64
2021/04/25 04:24:46;;;;;;;0.93;0.75;;;;;;;3.45;70.86;98924.66;4966879;28;20065;-64
2021/04/25 04:27:11;;;;;;;2.40;1.50;;;;;;;3.56;70.82;98932.50;4950731;28;20084;-65
2021/04/25 04:29:37;;;;;;;2.08;1.33;;;;;;;3.57;70.73;98942.94;4981120;28;20070;-64
2021/04/25 04:32:04;;;;;;;1.77;1.25;;;;;;;3.58;69.77;98925.47;4968024;28;20047;-64
2021/04/25 04:34:29;;;;;;;2.58;0.98;;;;;;;3.55;69.67;98947.31;4965569;28;20158;-70
2021/04/25 04:36:55;;;;;;;1.45;0.95;;;;;;;3.71;69.65;98911.41;4949084;28;20570;-68
2021/04/25 04:39:22;;;;;;;1.00;0.90;;;;;;;3.49;69.98;98905.41;4966211;28;20038;-65
2021/04/25 04:41:47;;;;;;;1.50;1.10;;;;;;;3.62;69.70;98928.06;4967776;28;20034;-65
2021/04/25 04:44:13;;;;;;;2.97;1.23;;;;;;;3.67;70.34;98910.56;4968161;28;20042;-64
2021/04/25 04:46:39;;;;;;;1.80;1.20;;;;;;;3.71;69.65;98925.38;4964223;28;20055;-65
2021/04/25 04:49:05;;;;;;;2.63;1.33;;;;;;;3.80;68.99;98927.94;4966276;28;20483;-65
2021/04/25 04:51:31;;;;;;;2.08;1.20;;;;;;;3.94;69.33;98918.25;4965631;28;20448;-64
2021/04/25 04:53:57;;;;;;;1.80;1.10;;;;;;;3.83;68.72;98911.31;4966374;28;20753;-64
2021/04/25 04:56:23;;;;;;;5.80;1.13;;;;;;;3.88;68.32;98906.94;4964513;28;20070;-66
2021/04/25 04:58:49;;;;;;;2.35;1.08;;;;;;;3.74;68.42;98893.03;4967813;28;20062;-65
2021/04/25 05:01:15;;;;;;;1.67;1.02;;;;;;;3.56;67.11;98818.03;4982335;28;20046;-64
2021/04/25 05:03:41;;;;;;;1.60;1.00;;;;;;;3.97;67.87;98901.59;4946936;28;20043;-65
2021/04/25 05:06:07;;;;;;;1.73;1.20;;;;;;;4.05;67.90;98891.94;4981491;28;20201;-65
2021/04/25 05:08:33;;;;;;;1.45;1.08;;;;;;;4.13;67.55;98891.00;4965912;28;20129;-64
2021/04/25 05:10:58;;;;;;;4.05;1.67;;;;;;;4.21;66.86;98891.78;4966197;28;20051;-66
2021/04/25 05:13:24;;;;;;;5.05;2.65;;;;;;;4.25;66.63;98911.88;4964133;28;20101;-65
2021/04/25 05:15:51;;;;;;;5.75;1.42;;;;;;;4.33;66.14;98910.03;4966343;28;20042;-65
2021/04/25 05:18:18;;;;;;;2.50;1.60;;;;;;;4.20;66.28;98857.69;4949164;28;20042;-65
2021/04/25 05:20:44;;;;;;;1.73;1.27;;;;;;;4.29;66.62;98896.97;4965433;28;20444;-71
2021/04/25 05:23:10;;;;;;;3.63;1.25;;;;;;;4.30;66.19;98915.31;4949209;28;20042;-65
2021/04/25 05:25:36;;;;;;;1.95;1.00;;;;;;;4.36;66.07;98911.78;4966249;28;20039;-64
2021/04/25 05:28:02;;;;;;;1.27;1.10;;;;;;;4.42;65.74;98909.94;4966479;28;20039;-65
2021/04/25 05:30:28;;;;;;;0.82;0.75;;;;;;;4.50;65.66;98912.50;4963964;28;20073;-64
2021/04/25 05:32:54;;;;;;;1.80;1.00;;;;;;;4.41;65.98;98907.34;4966548;28;20053;-65
2021/04/25 05:35:20;;;;;;;1.50;0.82;;;;;;;4.32;65.44;98857.56;4980257;28;20070;-66
2021/04/25 05:37:46;;;;;;;2.40;1.00;;;;;;;4.44;65.60;98899.44;4967146;28;20066;-66
2021/04/25 05:40:14;;;;;;;3.08;0.98;;;;;;;4.54;65.19;98932.56;4947732;28;20058;-65
2021/04/25 05:42:40;;;;;;;1.50;0.77;;;;;;;4.54;64.94;98911.56;4949736;28;20146;-65
2021/04/25 05:45:08;;;;;;;0.77;0.55;;;;;;;4.22;65.34;98882.16;4966059;28;20046;-66
2021/04/25 05:47:34;;;;;;;1.73;0.90;;;;;;;4.56;64.99;98894.06;4965374;28;20517;-67
2021/04/25 05:50:00;;;;;;;1.70;0.80;;;;;;;4.75;65.43;98922.72;4954980;28;20040;-68
2021/04/25 05:52:27;;;;;;;3.92;0.93;;;;;;;4.66;64.67;98916.69;4931123;29;20058;-66
2021/04/25 05:54:53;;;;;;;0.85;0.80;;;;;;;4.72;64.68;98914.03;4948647;28;20078;-66
2021/04/25 05:57:18;;;;;;;3.25;1.50;;;;;;;4.74;64.84;98930.63;4944379;29;20150;-67
2021/04/25 05:59:44;;;;;;;0.68;0.50;;;;;;;4.69;63.61;98917.56;4945690;28;20522;-65
2021/04/25 06:02:10;;;;;;;2.35;0.77;;;;;;;4.96;62.94;98946.13;4948078;29;20047;-65
2021/04/25 06:04:36;;;;;;;4.80;1.52;;;;;;;4.88;63.01;98915.59;4944344;28;20414;-69
2021/04/25 06:07:02;;;;;;;3.40;1.08;;;;;;;4.90;62.53;98930.44;4943817;29;20051;-65
2021/04/25 06:09:28;;;;;;;3.72;1.33;;;;;;;4.76;62.76;98924.47;4946427;28;20047;-65
2021/04/25 06:11:54;;;;;;;2.38;0.80;;;;;;;4.86;63.24;98936.63;4930901;29;20047;-66
2021/04/25 06:14:20;;;;;;;6.13;1.30;;;;;;;4.95;63.05;98931.25;4960831;28;20403;-66
2021/04/25 06:16:46;;;;;;;2.63;1.25;;;;;;;4.90;62.85;98930.44;4949504;28;20130;-68
2021/04/25 06:19:12;;;;;;;1.30;1.00;;;;;;;4.93;61.88;98922.53;4952074;28;20077;-68
2021/04/25 06:21:38;;;;;;;1.17;0.73;;;;;;;4.96;62.55;98940.03;4949309;28;20121;-65
2021/04/25 06:24:05;;;;;;;0.70;0.70;;;;;;;4.94;61.88;98916.41;4965187;28;20487;-64
2021/04/25 06:26:32;;;;;;;2.20;0.70;;;;;;;5.05;61.71;98932.03;4965807;28;20042;-64
2021/04/25 06:28:58;;;;;;;5.18;1.40;;;;;;;5.28;61.62;98932.63;4964904;28;20055;-66
2021/04/25 06:31:25;;;;;;;1.92;0.93;;;;;;;5.43;61.54;98926.31;4964642;28;20436;-67
2021/04/25 06:33:51;;;;;;;1.30;0.98;;;;;;;5.43;60.88;98928.94;4964256;28;20043;-68
2021/04/25 06:36:17;;;;;;;1.13;0.60;;;;;;;5.56;59.72;98901.56;4964642;28;20049;-65
2021/04/25 06:38:43;;;;;;;1.13;0.70;;;;;;;5.74;59.16;98911.84;4949048;28;20043;-67
2021/04/25 06:41:09;;;;;;;0.65;0.65;;;;;;;5.56;58.85;98915.59;4964139;28;20054;-68
2021/04/25 06:43:35;;;;;;;6.82;0.80;;;;;;;5.75;59.15;98955.66;4969374;28;20042;-65
2021/04/25 06:46:01;;;;;;;0.70;0.60;;;;;;;5.91;59.61;98928.28;4969240;28;20050;-65
2021/04/25 06:48:28;;;;;;;1.08;0.77;;;;;;;5.43;59.55;98874.63;4951053;28;20043;-71
2021/04/25 06:50:54;;;;;;;0.80;0.70;;;;;;;5.81;58.04;98930.16;4968909;28;21036;-66
2021/04/25 06:53:21;;;;;;;5.93;0.63;;;;;;;5.97;57.94;98949.25;4968235;28;20048;-66
2021/04/25 06:55:47;;;;;;;1.10;0.77;;;;;;;5.77;58.80;98915.28;4952626;28;20054;-64
2021/04/25 06:58:15;;;;;;;0.85;0.60;;;;;;;5.78;57.91;98951.25;4950670;28;20077;-65
2021/04/25 07:00:42;;;;;;;1.80;0.80;;;;;;;5.76;57.02;98933.72;4964131;28;20043;-65
2021/04/25 07:03:08;;;;;;;3.30;0.75;;;;;;;5.78;57.99;98959.13;4933071;29;20051;-67
2021/04/25 07:05:34;;;;;;;1.02;0.73;;;;;;;5.81;57.77;98963.50;4962048;28;20376;-67
2021/04/25 07:08:00;;;;;;;4.53;0.70;;;;;;;5.70;57.97;98953.09;4932791;29;20145;-67
2021/04/25 07:10:26;;;;;;;1.08;0.60;;;;;;;5.70;57.20;98955.72;4933483;28;20050;-64
2021/04/25 07:12:52;;;;;;;2.67;0.70;;;;;;;5.64;57.10;98957.56;4950484;28;20054;-66
2021/04/25 07:15:39;;;;;;;0.80;0.60;;;;;;;5.16;57.01;98897.75;4948572;29;20159;-68
2021/04/25 07:18:13;;;;;;;1.45;0.68;;;;;;;5.37;57.28;98956.16;4949564;29;20054;-68
2021/04/25 07:20:39;;;;;;;1.02;0.70;;;;;;;5.40;57.12;98961.38;4945256;28;20431;-64
2021/04/25 07:23:05;;;;;;;3.72;0.82;;;;;;;5.44;57.41;98980.59;4932821;29;20135;-66
2021/04/25 07:25:31;;;;;;;0.65;0.60;;;;;;;5.74;56.67;98981.06;4933205;29;20047;-66
2021/04/25 07:27:59;;;;;;;1.13;0.60;;;;;;;5.74;55.55;98962.66;4948457;29;20055;-69
2021/04/25 07:30:26;;;;;;;0.57;0.57;;;;;;;5.77;56.02;98962.63;4956193;28;20434;-65
2021/04/25 07:32:53;;;;;;;2.30;0.63;;;;;;;5.90;55.15;98974.78;4969474;28;20453;-66
2021/04/25 07:35:19;;;;;;;5.50;1.35;;;;;;;5.74;54.41;98946.88;4958473;28;20046;-66
2021/04/25 07:37:46;;;;;;;2.38;0.40;;;;;;;5.95;54.00;98969.44;4946706;29;20055;-66
2021/04/25 07:40:19;;;;;;;2.72;0.50;;;;;;;6.25;53.55;98982.16;4932465;29;20051;-65
2021/04/25 07:42:45;;;;;;;2.80;0.60;;;;;;;6.17;52.63;98934.88;4948632;29;20051;-65
2021/04/25 07:45:13;;;;;;;1.42;0.80;;;;;;;6.39;53.49;98961.72;4929985;29;20107;-67
2021/04/25 07:47:43;;;;;;;3.78;0.57;;;;;;;6.52;52.98;98984.34;4947687;29;20075;-66
2021/04/25 07:50:13;;;;;;;0.80;0.70;;;;;;;6.22;53.72;98917.25;4947925;28;20070;-66
2021/04/25 07:52:40;;;;;;;1.40;0.63;;;;;;;5.97;55.87;98944.84;4946119;28;20047;-68
2021/04/25 07:55:07;;;;;;;1.30;0.90;;;;;;;6.15;57.17;98994.56;4947934;29;20047;-68
2021/04/25 07:57:33;;;;;;;2.25;0.85;;;;;;;5.92;58.87;98967.72;4948282;29;20051;-68
2021/04/25 07:59:59;;;;;;;1.60;0.70;;;;;;;6.00;59.60;99007.06;4947592;29;20097;-67
2021/04/25 08:02:31;;;;;;;1.48;0.80;;;;;;;5.85;60.00;98992.38;4961078;28;20035;-66
2021/04/25 08:04:58;;;;;;;1.65;0.77;;;;;;;5.95;59.32;98999.25;4951356;28;20134;-69
2021/04/25 08:07:24;;;;;;;2.88;1.30;;;;;;;5.75;59.56;98996.00;4967403;28;20360;-66
2021/04/25 08:09:50;;;;;;;4.57;1.23;;;;;;;5.79;59.22;99023.09;4965254;28;20103;-66
2021/04/25 08:12:16;;;;;;;2.70;1.23;;;;;;;6.20;58.95;98997.13;4950977;28;20053;-66
2021/04/25 08:14:43;;;;;;;1.92;1.35;;;;;;;6.41;57.12;99004.69;4967375;28;20047;-67
2021/04/25 08:17:35;;;;;;;0.70;0.70;;;;;;;6.61;56.76;98992.94;4950555;28;20039;-72
2021/04/25 08:20:01;;;;;;;3.50;1.02;;;;;;;6.38;57.99;99015.28;4923027;29;20031;-65
2021/04/25 08:22:50;;;;;;;1.65;0.98;;;;;;;6.50;58.78;99022.97;4944567;28;20491;-70
2021/04/25 08:25:16;;;;;;;2.35;0.95;;;;;;;6.30;58.86;99014.53;4934792;28;20093;-66
2021/04/25 08:27:43;;;;;;;1.10;0.70;;;;;;;5.81;58.34;98988.03;4964079;28;20129;-64
2021/04/25 08:30:21;;;;;;;1.85;0.93;;;;;;;6.02;58.85;99028.97;4966207;28;20059;-65
2021/04/25 08:32:47;;;;;;;1.45;0.82;;;;;;;5.90;58.29;98990.56;4950939;28;20386;-66
2021/04/25 08:35:13;;;;;;;1.58;0.70;;;;;;;6.04;58.25;99017.53;4980290;28;20042;-71
2021/04/25 08:37:39;;;;;;;0.88;0.85;;;;;;;6.19;57.21;98993.63;4965351;28;20501;-74
2021/04/25 08:40:06;;;;;;;3.45;0.80;;;;;;;6.40;56.84;99017.00;4968053;28;20074;-65
2021/04/25 08:42:32;;;;;;;3.65;1.50;;;;;;;6.60;56.55;99021.97;4968223;28;20054;-74
2021/04/25 08:45:00;;;;;;;2.95;1.10;;;;;;;6.45;56.35;99025.69;4967270;28;20042;-77
2021/04/25 08:47:29;;;;;;;1.50;0.70;;;;;;;6.37;55.04;99016.19;4966984;28;20038;-71
2021/04/25 08:50:00;;;;;;;2.03;1.10;;;;;;;6.53;54.22;99038.75;4966760;28;20053;-71
2021/04/25 08:52:27;;;;;;;1.63;1.00;;;;;;;6.61;55.86;99047.41;4966779;28;20043;-73
2021/04/25 08:54:58;;;;;;;3.97;1.30;;;;;;;6.36;56.61;99056.53;4967709;28;20105;-72
2021/04/25 08:57:24;;;;;;;1.83;0.90;;;;;;;6.43;55.80;99030.13;4968319;28;20042;-85
2021/04/25 08:59:50;;;;;;;1.00;0.73;;;;;;;6.03;55.48;99043.88;4971118;28;20432;-68
2021/04/25 09:02:16;;;;;;;1.40;0.98;;;;;;;6.07;55.98;99046.44;4932195;28;20053;-71
2021/04/25 09:04:45;;;;;;;3.92;1.98;;;;;;;6.08;56.02;99040.28;4965881;28;20054;-71
2021/04/25 09:07:16;;;;;;;7.97;1.90;;;;;;;6.10;56.08;99048.16;4966063;28;20400;-74
2021/04/25 09:09:45;;;;;;;2.78;0.93;;;;;;;6.03;54.50;99043.88;4966071;28;20159;-73
2021/04/25 09:12:15;;;;;;;4.20;1.92;;;;;;;6.12;55.43;99068.28;4982167;28;20096;-76
2021/04/25 09:14:41;;;;;;;17.77;3.13;;;;;;;6.17;54.46;98995.41;4950191;28;20047;-77
2021/04/25 09:17:08;;;;;;;5.40;2.10;;;;;;;6.15;54.91;99070.00;4963882;28;20495;-74
2021/04/25 09:19:47;;;;;;;4.25;1.63;;;;;;;6.37;54.09;99059.16;4965065;28;20046;-74
2021/04/25 09:22:14;;;;;;;4.80;1.80;;;;;;;6.41;54.37;99047.69;4965821;28;20097;-72
2021/04/25 09:24:40;;;;;;;1.70;1.20;;;;;;;6.27;54.66;99060.19;4965674;28;20550;-75
2021/04/25 09:27:07;;;;;;;8.20;1.05;;;;;;;6.10;53.76;99013.94;4949777;28;20051;-78
2021/04/25 09:29:53;;;;;;;0.98;0.88;;;;;;;6.21;53.92;99056.78;4968273;28;20066;-70
2021/04/25 09:32:24;;;;;;;1.45;1.05;;;;;;;6.44;54.94;99062.59;4949860;28;20613;-63
2021/04/25 09:34:55;;;;;;;3.00;1.00;;;;;;;6.50;53.76;99060.72;4964896;28;20065;-62
2021/04/25 09:37:21;;;;;;;0.90;0.73;;;;;;;7.32;51.97;99070.75;4964583;28;20069;-64
2021/04/25 09:40:02;;;;;;;1.20;0.90;;;;;;;6.96;51.62;99082.78;4964497;28;20850;-67
2021/04/25 09:42:31;;;;;;;2.20;1.33;;;;;;;7.26;51.25;99076.13;4967143;28;20043;-64
2021/04/25 09:44:57;;;;;;;2.30;1.27;;;;;;;7.09;50.25;99055.34;4963785;28;20043;-65
2021/04/25 09:47:34;;;;;;;2.50;1.20;;;;;;;6.60;51.33;99051.78;4967388;28;20049;-70
2021/04/25 09:50:00;;;;;;;2.78;0.80;;;;;;;6.81;52.13;99080.41;4965567;28;20057;-63
2021/04/25 09:52:26;;;;;;;2.47;0.90;;;;;;;7.04;52.17;99090.59;4964408;28;20053;-62
2021/04/25 09:55:28;;;;;;;1.65;0.70;;;;;;;6.81;51.87;99088.31;4965915;28;20046;-70
2021/04/25 09:58:09;;;;;;;0.95;0.80;;;;;;;6.62;51.16;99091.25;4935202;28;20046;-66
2021/04/25 10:00:53;;;;;;;4.00;1.15;;;;;;;6.91;50.57;99111.00;4965776;28;20062;-69
2021/04/25 10:03:22;;;;;;;8.38;1.33;;;;;;;7.03;49.66;99086.19;4965377;28;20050;-66
2021/04/25 10:06:00;;;;;;;1.73;0.77;;;;;;;6.99;49.99;99095.94;4964221;28;20043;-66
2021/04/25 10:08:35;;;;;;;3.75;0.90;;;;;;;7.03;49.44;99102.00;4948170;28;20059;-65
2021/04/25 10:11:06;;;;;;;1.92;1.40;;;;;;;7.46;49.82;99116.19;4950155;28;20042;-66
2021/04/25 10:13:36;;;;;;;2.10;0.95;;;;;;;7.37;48.21;99140.09;4966481;28;20070;-66
2021/04/25 10:16:03;;;;;;;0.80;0.60;;;;;;;7.40;47.42;99134.78;4964080;28;20035;-65
2021/04/25 10:18:28;;;;;;;2.45;0.60;;;;;;;7.15;48.96;99157.16;4974356;28;20046;-66
2021/04/25 10:20:57;;;;;;;1.02;0.90;;;;;;;7.41;48.45;99082.00;4961145;28;20055;-65
2021/04/25 10:23:26;;;;;;;1.10;0.70;;;;;;;7.23;50.22;99129.78;4959944;28;20051;-66
2021/04/25 10:25:53;;;;;;;2.38;1.00;;;;;;;7.48;49.76;99133.72;4953740;28;20093;-66
2021/04/25 10:28:45;;;;;;;4.68;1.35;;;;;;;9.08;45.19;99133.88;4956768;28;20066;-67
2021/04/25 10:31:20;;;;;;;5.28;0.85;;;;;;;10.04;43.61;99117.22;4960800;28;20118;-64
2021/04/25 10:34:04;;;;;;;2.17;1.20;;;;;;;9.08;45.47;99145.34;4962613;28;20054;-65
2021/04/25 10:36:45;;;;;;;1.58;0.85;;;;;;;8.99;44.79;99110.31;4954259;28;20047;-63
2021/04/25 10:39:33;;;;;;;2.45;0.70;;;;;;;8.27;46.14;99128.66;4963711;28;20057;-64
2021/04/25 10:42:21;;;;;;;2.45;0.57;;;;;;;7.64;47.24;99111.44;4960217;28;20053;-66
2021/04/25 10:45:03;;;;;;;2.47;0.80;;;;;;;8.18;47.24;99144.69;4950862;28;20043;-65
2021/04/25 10:47:36;;;;;;;4.72;0.70;;;;;;;8.42;46.33;99130.13;4949005;28;20050;-70
2021/04/25 10:50:18;;;;;;;0.75;0.63;;;;;;;8.11;46.70;99129.88;4942328;28;20045;-69
2021/04/25 10:52:51;;;;;;;3.47;1.02;;;;;;;9.23;45.27;99150.22;4969916;28;20110;-69
2021/04/25 10:55:24;;;;;;;1.75;1.15;;;;;;;9.63;44.96;99165.09;4968241;28;20492;-67
2021/04/25 10:57:57;;;;;;;1.17;0.80;;;;;;;9.74;44.00;99112.75;4932462;29;20158;-70
2021/04/25 11:00:37;;;;;;;1.73;0.80;;;;;;;9.18;44.75;99122.19;4933237;29;20047;-70
2021/04/25 11:03:11;;;;;;;2.80;1.13;;;;;;;9.03;45.60;99183.34;4930933;29;20051;-69
2021/04/25 11:05:37;;;;;;;1.35;0.80;;;;;;;8.50;47.11;99146.66;4942499;28;20190;-68
2021/04/25 11:08:21;;;;;;;3.45;0.93;;;;;;;8.31;48.11;99164.69;4966848;28;20546;-68
2021/04/25 11:11:11;;;;;;;10.57;1.27;;;;;;;8.47;44.70;99133.56;4984403;28;20086;-66
2021/04/25 11:13:49;;;;;;;1.30;0.88;;;;;;;8.34;45.22;99147.91;4966276;28;20097;-68
2021/04/25 11:16:18;;;;;;;1.73;0.70;;;;;;;8.16;45.43;99146.47;4967672;28;20074;-69
2021/04/25 11:19:07;;;;;;;1.08;0.80;;;;;;;8.43;45.49;99161.78;4966776;28;20129;-65
2021/04/25 11:24:29;;;;;;;1.88;0.80;;;;;;;8.33;45.18;99143.53;4968560;28;20470;-65
2021/04/25 11:26:59;;;;;;;2.83;0.88;;;;;;;8.29;45.53;99197.31;4967023;28;20050;-65
2021/04/25 11:29:28;;;;;;;3.50;1.00;;;;;;;7.96;47.17;99140.72;4920476;28;20062;-65
2021/04/25 11:32:00;;;;;;;1.00;0.75;;;;;;;8.22;46.58;99170.16;4965296;28;20601;-65
2021/04/25 11:34:26;;;;;;;2.70;0.90;;;;;;;8.13;45.97;99169.44;4950649;28;20447;-67
2021/04/25 11:36:57;;;;;;;0.75;0.50;;;;;;;7.93;45.37;99132.88;4966578;28;20483;-66
2021/04/25 11:39:43;;;;;;;4.30;0.73;;;;;;;7.98;45.68;99181.16;4949830;28;20050;-66
2021/04/25 11:42:36;;;;;;;2.20;1.90;;;;;;;7.73;45.03;99171.97;4951011;28;20146;-64
2021/04/25 11:45:11;;;;;;;2.63;0.90;;;;;;;8.24;45.92;99170.13;4949573;28;20058;-64
2021/04/25 11:47:48;;;;;;;3.97;1.17;;;;;;;8.37;45.83;99206.84;4934192;28;20038;-70
2021/04/25 11:50:16;;;;;;;2.72;1.15;;;;;;;8.00;46.03;99207.53;4957237;28;20763;-70